Herrings, New York
Current Conditions -  °F | °C
As of 3:36 PM on Thursday 27 Nov 2014 (Local Time) from KGTB Reporting Station
Light Snow Light Snow  
Wind Chill: 27°   Ceiling: 1600
Heat Index: 27°   Visibility: 4mi
Dew Point: 23°   Wind: 2mph
Humidity: 86%   Direction: 50°NE
Pressure: 30.02"   Gusts: NA
Location:  43.9769°N, 75.558°W
Report Text: KGTB 272036Z AUTO 05002KT 4SM -SN BR OVC016 M03/M05 A3002 RMK AO2 SNE2027B2031 CIG 007V016
Loading
Personal Weather Stations






























Interactive Weather Map New forecast layout! Learn more

10-Day Weather Forecast

Advertisements
Track Severe Weather on mobile